sensor_id;sensor_type;location;lat;lon;timestamp;pressure;altitude;pressure_sealevel;temperature;humidity
40940;BME280;26666;50.156;7.700;2023-04-19T00:01:30;101289.09;;;10.15;100.00
40940;BME280;26666;50.156;7.700;2023-04-19T00:06:32;101291.22;;;10.10;100.00
40940;BME280;26666;50.156;7.700;2023-04-19T00:11:35;101293.97;;;10.08;100.00
40940;BME280;26666;50.156;7.700;2023-04-19T00:16:37;101287.09;;;10.05;100.00
40940;BME280;26666;50.156;7.700;2023-04-19T00:21:39;101280.94;;;9.92;100.00
40940;BME280;26666;50.156;7.700;2023-04-19T00:26:42;101274.00;;;9.91;100.00
40940;BME280;26666;50.156;7.700;2023-04-19T00:31:43;101284.25;;;9.83;100.00
40940;BME280;26666;50.156;7.700;2023-04-19T00:36:45;101285.28;;;9.80;100.00
40940;BME280;26666;50.156;7.700;2023-04-19T00:41:48;101283.28;;;9.84;100.00
40940;BME280;26666;50.156;7.700;2023-04-19T00:46:50;101278.69;;;9.60;100.00
40940;BME280;26666;50.156;7.700;2023-04-19T00:51:52;101277.88;;;9.60;100.00
40940;BME280;26666;50.156;7.700;2023-04-19T00:56:55;101276.06;;;9.60;100.00
40940;BME280;26666;50.156;7.700;2023-04-19T01:01:57;101272.75;;;9.44;100.00
40940;BME280;26666;50.156;7.700;2023-04-19T01:07:00;101263.66;;;9.35;100.00
40940;BME280;26666;50.156;7.700;2023-04-19T01:12:04;101261.28;;;9.18;100.00
40940;BME280;26666;50.156;7.700;2023-04-19T01:17:06;101258.97;;;8.99;100.00
40940;BME280;26666;50.156;7.700;2023-04-19T01:22:08;101256.00;;;8.91;100.00
40940;BME280;26666;50.156;7.700;2023-04-19T01:27:11;101252.81;;;8.85;100.00
40940;BME280;26666;50.156;7.700;2023-04-19T01:32:13;101251.13;;;8.84;100.00
40940;BME280;26666;50.156;7.700;2023-04-19T01:37:15;101250.03;;;8.74;100.00
40940;BME280;26666;50.156;7.700;2023-04-19T01:42:18;101241.28;;;8.74;100.00
40940;BME280;26666;50.156;7.700;2023-04-19T01:47:20;101238.69;;;8.86;100.00
40940;BME280;26666;50.156;7.700;2023-04-19T01:52:22;101232.28;;;8.91;100.00
40940;BME280;26666;50.156;7.700;2023-04-19T01:57:25;101226.50;;;8.98;100.00
40940;BME280;26666;50.156;7.700;2023-04-19T02:02:26;101226.22;;;9.03;100.00
40940;BME280;26666;50.156;7.700;2023-04-19T02:07:28;101219.91;;;9.05;100.00
40940;BME280;26666;50.156;7.700;2023-04-19T02:12:34;101221.47;;;8.81;100.00
40940;BME280;26666;50.156;7.700;2023-04-19T02:17:36;101213.66;;;9.06;100.00
40940;BME280;26666;50.156;7.700;2023-04-19T02:22:38;101208.16;;;8.97;100.00
40940;BME280;26666;50.156;7.700;2023-04-19T02:27:41;101212.34;;;8.86;100.00
40940;BME280;26666;50.156;7.700;2023-04-19T02:32:43;101216.84;;;8.84;100.00
40940;BME280;26666;50.156;7.700;2023-04-19T02:37:45;101222.19;;;8.97;100.00
40940;BME280;26666;50.156;7.700;2023-04-19T02:42:48;101210.78;;;8.97;100.00
40940;BME280;26666;50.156;7.700;2023-04-19T02:47:49;101209.94;;;8.96;100.00
40940;BME280;26666;50.156;7.700;2023-04-19T02:52:51;101207.91;;;8.87;100.00
40940;BME280;26666;50.156;7.700;2023-04-19T02:57:54;101203.03;;;8.81;100.00
40940;BME280;26666;50.156;7.700;2023-04-19T03:02:56;101193.97;;;8.85;100.00
40940;BME280;26666;50.156;7.700;2023-04-19T03:07:58;101197.25;;;8.88;100.00
40940;BME280;26666;50.156;7.700;2023-04-19T03:13:01;101193.69;;;8.90;100.00
40940;BME280;26666;50.156;7.700;2023-04-19T03:18:02;101200.72;;;8.89;100.00
40940;BME280;26666;50.156;7.700;2023-04-19T03:23:04;101199.81;;;8.90;100.00
40940;BME280;26666;50.156;7.700;2023-04-19T03:28:07;101191.75;;;8.79;100.00
40940;BME280;26666;50.156;7.700;2023-04-19T03:33:09;101189.69;;;8.97;100.00
40940;BME280;26666;50.156;7.700;2023-04-19T03:38:11;101190.34;;;8.73;100.00
40940;BME280;26666;50.156;7.700;2023-04-19T03:43:14;101179.16;;;8.97;100.00
40940;BME280;26666;50.156;7.700;2023-04-19T03:48:15;101179.72;;;9.02;100.00
40940;BME280;26666;50.156;7.700;2023-04-19T03:53:17;101180.44;;;9.04;100.00
40940;BME280;26666;50.156;7.700;2023-04-19T03:58:20;101177.72;;;9.05;100.00
40940;BME280;26666;50.156;7.700;2023-04-19T04:03:22;101177.81;;;9.04;100.00
40940;BME280;26666;50.156;7.700;2023-04-19T04:08:24;101180.44;;;9.04;100.00
40940;BME280;26666;50.156;7.700;2023-04-19T04:13:27;101184.13;;;9.01;100.00
40940;BME280;26666;50.156;7.700;2023-04-19T04:18:29;101174.25;;;9.05;100.00
40940;BME280;26666;50.156;7.700;2023-04-19T04:23:31;101180.22;;;8.94;100.00
40940;BME280;26666;50.156;7.700;2023-04-19T04:28:34;101194.03;;;8.98;100.00
40940;BME280;26666;50.156;7.700;2023-04-19T04:33:36;101184.38;;;9.11;100.00
40940;BME280;26666;50.156;7.700;2023-04-19T04:38:37;101190.59;;;9.10;100.00
40940;BME280;26666;50.156;7.700;2023-04-19T04:43:40;101185.53;;;9.20;100.00
40940;BME280;26666;50.156;7.700;2023-04-19T04:48:42;101186.59;;;9.17;100.00
40940;BME280;26666;50.156;7.700;2023-04-19T04:53:44;101194.88;;;9.38;100.00
40940;BME280;26666;50.156;7.700;2023-04-19T04:58:47;101195.91;;;9.36;100.00
40940;BME280;26666;50.156;7.700;2023-04-19T05:03:49;101192.66;;;9.32;100.00
40940;BME280;26666;50.156;7.700;2023-04-19T05:08:51;101183.19;;;9.42;100.00
40940;BME280;26666;50.156;7.700;2023-04-19T05:13:54;101180.81;;;9.38;100.00
40940;BME280;26666;50.156;7.700;2023-04-19T05:18:55;101177.69;;;9.58;100.00
40940;BME280;26666;50.156;7.700;2023-04-19T05:23:57;101177.69;;;9.58;100.00
40940;BME280;26666;50.156;7.700;2023-04-19T05:29:00;101170.84;;;9.68;100.00
40940;BME280;26666;50.156;7.700;2023-04-19T05:34:02;101172.44;;;9.71;100.00
40940;BME280;26666;50.156;7.700;2023-04-19T05:39:04;101169.06;;;9.69;100.00
40940;BME280;26666;50.156;7.700;2023-04-19T05:44:07;101161.44;;;9.90;100.00
40940;BME280;26666;50.156;7.700;2023-04-19T05:49:09;101165.66;;;9.93;100.00
40940;BME280;26666;50.156;7.700;2023-04-19T05:54:10;101175.88;;;9.84;100.00
40940;BME280;26666;50.156;7.700;2023-04-19T05:59:13;101174.41;;;10.06;100.00
40940;BME280;26666;50.156;7.700;2023-04-19T06:04:15;101176.72;;;10.11;100.00
40940;BME280;26666;50.156;7.700;2023-04-19T06:09:18;101178.81;;;10.31;100.00
40940;BME280;26666;50.156;7.700;2023-04-19T06:14:21;101176.25;;;10.42;100.00
40940;BME280;26666;50.156;7.700;2023-04-19T06:19:23;101178.69;;;10.45;100.00
40940;BME280;26666;50.156;7.700;2023-04-19T06:24:25;101169.69;;;10.48;100.00
40940;BME280;26666;50.156;7.700;2023-04-19T06:29:28;101171.69;;;10.44;100.00
40940;BME280;26666;50.156;7.700;2023-04-19T06:34:30;101172.31;;;10.61;100.00
40940;BME280;26666;50.156;7.700;2023-04-19T06:39:31;101166.03;;;10.62;100.00
40940;BME280;26666;50.156;7.700;2023-04-19T06:44:35;101173.19;;;10.73;100.00
40940;BME280;26666;50.156;7.700;2023-04-19T06:49:37;101172.56;;;10.69;100.00
40940;BME280;26666;50.156;7.700;2023-04-19T06:54:38;101164.19;;;10.75;100.00
40940;BME280;26666;50.156;7.700;2023-04-19T06:59:41;101172.75;;;10.79;100.00
40940;BME280;26666;50.156;7.700;2023-04-19T07:04:43;101173.66;;;10.91;100.00
40940;BME280;26666;50.156;7.700;2023-04-19T07:09:45;101173.69;;;11.02;100.00
40940;BME280;26666;50.156;7.700;2023-04-19T07:14:49;101166.09;;;10.97;100.00
40940;BME280;26666;50.156;7.700;2023-04-19T07:19:53;101173.03;;;11.11;100.00
40940;BME280;26666;50.156;7.700;2023-04-19T07:24:55;101168.78;;;11.09;100.00
40940;BME280;26666;50.156;7.700;2023-04-19T07:29:58;101168.47;;;11.24;100.00
40940;BME280;26666;50.156;7.700;2023-04-19T07:35:03;101154.81;;;11.42;100.00
40940;BME280;26666;50.156;7.700;2023-04-19T07:40:06;101156.31;;;11.69;98.12
40940;BME280;26666;50.156;7.700;2023-04-19T07:45:10;101159.25;;;11.99;98.13
40940;BME280;26666;50.156;7.700;2023-04-19T07:50:11;101159.47;;;12.08;93.70
40940;BME280;26666;50.156;7.700;2023-04-19T07:55:13;101160.31;;;12.19;96.18
40940;BME280;26666;50.156;7.700;2023-04-19T08:00:17;101156.41;;;12.46;91.24
40940;BME280;26666;50.156;7.700;2023-04-19T08:05:19;101153.03;;;12.55;88.94
40940;BME280;26666;50.156;7.700;2023-04-19T08:10:21;101145.50;;;12.17;91.46
40940;BME280;26666;50.156;7.700;2023-04-19T08:15:25;101150.31;;;12.12;91.65
40940;BME280;26666;50.156;7.700;2023-04-19T08:20:46;101139.13;;;12.08;92.39
40940;BME280;26666;50.156;7.700;2023-04-19T08:25:48;101139.97;;;12.20;93.02
40940;BME280;26666;50.156;7.700;2023-04-19T08:30:53;101132.25;;;11.94;90.87
40940;BME280;26666;50.156;7.700;2023-04-19T08:35:54;101126.63;;;11.99;91.19
40940;BME280;26666;50.156;7.700;2023-04-19T08:40:56;101130.81;;;12.13;91.70
40940;BME280;26666;50.156;7.700;2023-04-19T08:46:00;101125.75;;;12.21;91.07
40940;BME280;26666;50.156;7.700;2023-04-19T08:51:03;101128.41;;;12.21;90.36
40940;BME280;26666;50.156;7.700;2023-04-19T08:56:07;101133.41;;;12.47;89.41
40940;BME280;26666;50.156;7.700;2023-04-19T09:01:26;101118.09;;;12.39;86.69
40940;BME280;26666;50.156;7.700;2023-04-19T09:06:39;101119.22;;;12.36;85.88
40940;BME280;26666;50.156;7.700;2023-04-19T09:11:42;101109.53;;;12.47;84.16
40940;BME280;26666;50.156;7.700;2023-04-19T09:17:10;101106.97;;;12.89;82.52
40940;BME280;26666;50.156;7.700;2023-04-19T09:22:13;101112.16;;;12.90;80.02
40940;BME280;26666;50.156;7.700;2023-04-19T09:27:24;101115.59;;;13.23;80.89
40940;BME280;26666;50.156;7.700;2023-04-19T09:32:27;101104.22;;;13.32;76.50
40940;BME280;26666;50.156;7.700;2023-04-19T09:37:29;101103.94;;;13.56;76.00
40940;BME280;26666;50.156;7.700;2023-04-19T09:42:54;101081.84;;;14.86;71.69
40940;BME280;26666;50.156;7.700;2023-04-19T09:48:04;101078.75;;;14.81;71.23
40940;BME280;26666;50.156;7.700;2023-04-19T09:53:07;101075.47;;;13.99;71.28
40940;BME280;26666;50.156;7.700;2023-04-19T09:58:09;101084.63;;;13.85;73.27
40940;BME280;26666;50.156;7.700;2023-04-19T10:03:12;101069.16;;;14.00;71.94
40940;BME280;26666;50.156;7.700;2023-04-19T10:08:14;101075.22;;;14.22;69.23
40940;BME280;26666;50.156;7.700;2023-04-19T10:13:17;101065.78;;;13.98;68.83
40940;BME280;26666;50.156;7.700;2023-04-19T10:18:26;101068.31;;;13.99;69.03
40940;BME280;26666;50.156;7.700;2023-04-19T10:23:28;101077.91;;;13.91;67.29
40940;BME280;26666;50.156;7.700;2023-04-19T10:28:34;101057.88;;;14.37;67.39
40940;BME280;26666;50.156;7.700;2023-04-19T10:33:37;101056.66;;;14.61;66.52
40940;BME280;26666;50.156;7.700;2023-04-19T10:38:40;101057.47;;;14.71;65.34
40940;BME280;26666;50.156;7.700;2023-04-19T10:43:44;101035.91;;;14.93;64.84
40940;BME280;26666;50.156;7.700;2023-04-19T10:48:52;101041.81;;;14.87;64.45
40940;BME280;26666;50.156;7.700;2023-04-19T10:53:56;101028.06;;;14.92;64.19
40940;BME280;26666;50.156;7.700;2023-04-19T10:59:14;101017.03;;;14.48;58.84
40940;BME280;26666;50.156;7.700;2023-04-19T11:04:20;101015.78;;;14.62;64.23
40940;BME280;26666;50.156;7.700;2023-04-19T11:09:22;101025.16;;;14.85;61.12
40940;BME280;26666;50.156;7.700;2023-04-19T11:14:24;101006.41;;;14.77;55.96
40940;BME280;26666;50.156;7.700;2023-04-19T11:19:28;100989.03;;;14.83;59.04
40940;BME280;26666;50.156;7.700;2023-04-19T11:24:29;100983.97;;;14.79;58.53
40940;BME280;26666;50.156;7.700;2023-04-19T11:29:31;100985.41;;;14.64;56.97
40940;BME280;26666;50.156;7.700;2023-04-19T11:34:38;100966.53;;;14.57;56.72
40940;BME280;26666;50.156;7.700;2023-04-19T11:39:44;100974.22;;;14.61;57.51
40940;BME280;26666;50.156;7.700;2023-04-19T11:44:50;100966.66;;;14.46;58.20
40940;BME280;26666;50.156;7.700;2023-04-19T11:49:55;100952.66;;;14.34;60.01
40940;BME280;26666;50.156;7.700;2023-04-19T11:55:16;100968.47;;;14.16;50.42
40940;BME280;26666;50.156;7.700;2023-04-19T12:00:26;100986.78;;;13.90;46.18
40940;BME280;26666;50.156;7.700;2023-04-19T12:05:30;100978.22;;;13.87;47.74
40940;BME280;26666;50.156;7.700;2023-04-19T12:10:33;100968.63;;;13.95;50.07
40940;BME280;26666;50.156;7.700;2023-04-19T12:15:45;100974.03;;;13.84;47.93
40940;BME280;26666;50.156;7.700;2023-04-19T12:20:50;100970.22;;;13.67;47.17
40940;BME280;26666;50.156;7.700;2023-04-19T12:25:52;100964.53;;;13.72;48.79
40940;BME280;26666;50.156;7.700;2023-04-19T12:30:54;100961.41;;;13.57;47.63
40940;BME280;26666;50.156;7.700;2023-04-19T12:35:57;100958.91;;;13.75;48.70
40940;BME280;26666;50.156;7.700;2023-04-19T12:40:59;100946.44;;;13.56;47.19
40940;BME280;26666;50.156;7.700;2023-04-19T12:46:01;100927.84;;;13.56;49.34
40940;BME280;26666;50.156;7.700;2023-04-19T12:51:05;100935.00;;;13.65;49.04
40940;BME280;26666;50.156;7.700;2023-04-19T12:56:06;100921.13;;;13.52;45.72
40940;BME280;26666;50.156;7.700;2023-04-19T13:01:09;100911.09;;;13.55;48.41
40940;BME280;26666;50.156;7.700;2023-04-19T13:06:13;100907.72;;;13.53;46.01
40940;BME280;26666;50.156;7.700;2023-04-19T13:11:15;100895.44;;;13.52;45.13
40940;BME280;26666;50.156;7.700;2023-04-19T13:16:17;100886.22;;;13.56;48.33
40940;BME280;26666;50.156;7.700;2023-04-19T13:21:20;100875.88;;;13.53;45.45
40940;BME280;26666;50.156;7.700;2023-04-19T13:26:22;100886.06;;;13.58;44.75
40940;BME280;26666;50.156;7.700;2023-04-19T13:31:24;100875.03;;;13.53;44.89
40940;BME280;26666;50.156;7.700;2023-04-19T13:36:28;100870.28;;;13.47;44.11
40940;BME280;26666;50.156;7.700;2023-04-19T13:41:29;100842.50;;;13.51;44.54
40940;BME280;26666;50.156;7.700;2023-04-19T13:46:31;100843.75;;;13.56;46.72
40940;BME280;26666;50.156;7.700;2023-04-19T13:51:34;100834.66;;;13.49;44.81
40940;BME280;26666;50.156;7.700;2023-04-19T13:56:50;100826.25;;;13.54;44.34
40940;BME280;26666;50.156;7.700;2023-04-19T14:01:53;100824.47;;;13.64;46.08
40940;BME280;26666;50.156;7.700;2023-04-19T14:06:56;100819.69;;;13.58;46.61
40940;BME280;26666;50.156;7.700;2023-04-19T14:11:58;100809.63;;;13.61;44.34
40940;BME280;26666;50.156;7.700;2023-04-19T14:16:59;100803.22;;;13.54;44.75
40940;BME280;26666;50.156;7.700;2023-04-19T14:22:02;100797.91;;;13.54;46.47
40940;BME280;26666;50.156;7.700;2023-04-19T14:27:04;100808.38;;;13.66;47.31
40940;BME280;26666;50.156;7.700;2023-04-19T14:32:13;100796.50;;;13.50;45.13
40940;BME280;26666;50.156;7.700;2023-04-19T14:37:28;100789.38;;;13.60;44.81
40940;BME280;26666;50.156;7.700;2023-04-19T14:42:30;100781.13;;;13.64;44.08
40940;BME280;26666;50.156;7.700;2023-04-19T14:47:31;100797.75;;;13.66;43.59
40940;BME280;26666;50.156;7.700;2023-04-19T14:52:35;100773.47;;;13.60;42.46
40940;BME280;26666;50.156;7.700;2023-04-19T14:57:36;100779.34;;;13.35;42.21
40940;BME280;26666;50.156;7.700;2023-04-19T15:02:38;100773.59;;;13.39;42.28
40940;BME280;26666;50.156;7.700;2023-04-19T15:07:41;100758.94;;;13.45;41.66
40940;BME280;26666;50.156;7.700;2023-04-19T15:12:43;100768.41;;;13.57;41.61
40940;BME280;26666;50.156;7.700;2023-04-19T15:17:45;100768.97;;;13.51;42.28
40940;BME280;26666;50.156;7.700;2023-04-19T15:22:48;100765.19;;;13.44;40.96
40940;BME280;26666;50.156;7.700;2023-04-19T15:27:50;100772.56;;;13.21;41.29
40940;BME280;26666;50.156;7.700;2023-04-19T15:32:51;100789.59;;;13.09;40.06
40940;BME280;26666;50.156;7.700;2023-04-19T15:37:55;100783.44;;;13.08;38.67
40940;BME280;26666;50.156;7.700;2023-04-19T15:42:57;100784.97;;;13.11;38.69
40940;BME280;26666;50.156;7.700;2023-04-19T15:47:58;100775.75;;;13.05;38.56
40940;BME280;26666;50.156;7.700;2023-04-19T15:53:03;100777.84;;;13.11;38.44
40940;BME280;26666;50.156;7.700;2023-04-19T15:58:05;100771.00;;;12.99;39.26
40940;BME280;26666;50.156;7.700;2023-04-19T16:03:07;100769.63;;;13.05;39.63
40940;BME280;26666;50.156;7.700;2023-04-19T16:08:11;100774.34;;;13.01;39.40
40940;BME280;26666;50.156;7.700;2023-04-19T16:13:13;100774.47;;;12.99;39.63
40940;BME280;26666;50.156;7.700;2023-04-19T16:18:18;100770.41;;;12.86;39.87
40940;BME280;26666;50.156;7.700;2023-04-19T16:23:22;100767.06;;;12.93;41.36
40940;BME280;26666;50.156;7.700;2023-04-19T16:28:27;100779.63;;;12.81;40.94
40940;BME280;26666;50.156;7.700;2023-04-19T16:33:29;100787.44;;;12.83;42.29
40940;BME280;26666;50.156;7.700;2023-04-19T16:38:32;100793.38;;;12.66;41.31
40940;BME280;26666;50.156;7.700;2023-04-19T16:43:34;100792.69;;;12.63;40.73
40940;BME280;26666;50.156;7.700;2023-04-19T16:48:35;100802.13;;;12.56;41.27
40940;BME280;26666;50.156;7.700;2023-04-19T16:53:38;100791.94;;;12.52;39.22
40940;BME280;26666;50.156;7.700;2023-04-19T16:58:40;100782.84;;;12.45;40.48
40940;BME280;26666;50.156;7.700;2023-04-19T17:03:42;100785.31;;;12.36;40.28
40940;BME280;26666;50.156;7.700;2023-04-19T17:08:45;100789.63;;;12.37;40.00
40940;BME280;26666;50.156;7.700;2023-04-19T17:13:46;100784.44;;;12.26;39.63
40940;BME280;26666;50.156;7.700;2023-04-19T17:18:48;100774.78;;;12.25;40.20
40940;BME280;26666;50.156;7.700;2023-04-19T17:23:51;100788.31;;;12.22;41.87
40940;BME280;26666;50.156;7.700;2023-04-19T17:28:53;100780.31;;;12.12;40.32
40940;BME280;26666;50.156;7.700;2023-04-19T17:33:55;100776.28;;;12.18;39.92
40940;BME280;26666;50.156;7.700;2023-04-19T17:38:58;100769.25;;;12.07;41.96
40940;BME280;26666;50.156;7.700;2023-04-19T17:44:00;100780.03;;;11.94;42.00
40940;BME280;26666;50.156;7.700;2023-04-19T17:49:01;100784.91;;;11.89;40.98
40940;BME280;26666;50.156;7.700;2023-04-19T17:54:04;100799.53;;;11.72;40.88
40940;BME280;26666;50.156;7.700;2023-04-19T17:59:06;100788.94;;;11.72;42.15
40940;BME280;26666;50.156;7.700;2023-04-19T18:04:08;100795.25;;;11.60;42.25
40940;BME280;26666;50.156;7.700;2023-04-19T18:09:11;100804.81;;;11.40;43.20
40940;BME280;26666;50.156;7.700;2023-04-19T18:14:13;100807.28;;;11.20;46.80
40940;BME280;26666;50.156;7.700;2023-04-19T18:19:15;100805.25;;;11.13;44.47
40940;BME280;26666;50.156;7.700;2023-04-19T18:24:18;100801.31;;;11.07;43.33
40940;BME280;26666;50.156;7.700;2023-04-19T18:29:20;100817.06;;;10.97;43.70
40940;BME280;26666;50.156;7.700;2023-04-19T18:34:21;100818.97;;;10.95;41.98
40940;BME280;26666;50.156;7.700;2023-04-19T18:39:25;100816.13;;;10.87;44.17
40940;BME280;26666;50.156;7.700;2023-04-19T18:44:26;100821.66;;;10.84;44.04
40940;BME280;26666;50.156;7.700;2023-04-19T18:49:48;100823.59;;;10.82;44.43
40940;BME280;26666;50.156;7.700;2023-04-19T18:55:07;100819.50;;;10.67;43.96
40940;BME280;26666;50.156;7.700;2023-04-19T19:00:09;100828.75;;;10.61;44.46
40940;BME280;26666;50.156;7.700;2023-04-19T19:05:11;100834.38;;;10.56;44.23
40940;BME280;26666;50.156;7.700;2023-04-19T19:10:15;100831.75;;;10.45;44.59
40940;BME280;26666;50.156;7.700;2023-04-19T19:15:22;100836.44;;;10.41;45.89
40940;BME280;26666;50.156;7.700;2023-04-19T19:20:24;100846.00;;;10.31;44.43
40940;BME280;26666;50.156;7.700;2023-04-19T19:25:27;100841.16;;;10.25;45.32
40940;BME280;26666;50.156;7.700;2023-04-19T19:30:29;100850.16;;;10.22;45.37
40940;BME280;26666;50.156;7.700;2023-04-19T19:35:30;100844.69;;;10.01;48.26
40940;BME280;26666;50.156;7.700;2023-04-19T19:40:33;100843.00;;;9.89;48.58
40940;BME280;26666;50.156;7.700;2023-04-19T19:45:35;100845.53;;;9.66;50.19
40940;BME280;26666;50.156;7.700;2023-04-19T19:50:37;100849.69;;;8.97;53.40
40940;BME280;26666;50.156;7.700;2023-04-19T19:55:47;100856.78;;;8.83;55.13
40940;BME280;26666;50.156;7.700;2023-04-19T20:00:49;100849.94;;;8.42;56.79
40940;BME280;26666;50.156;7.700;2023-04-19T20:05:53;100861.94;;;8.34;58.57
40940;BME280;26666;50.156;7.700;2023-04-19T20:10:59;100857.59;;;8.20;60.43
40940;BME280;26666;50.156;7.700;2023-04-19T20:16:00;100867.03;;;7.97;60.58
40940;BME280;26666;50.156;7.700;2023-04-19T20:21:02;100867.63;;;7.87;60.26
40940;BME280;26666;50.156;7.700;2023-04-19T20:26:06;100860.91;;;7.83;60.40
40940;BME280;26666;50.156;7.700;2023-04-19T20:31:07;100872.13;;;7.73;60.62
40940;BME280;26666;50.156;7.700;2023-04-19T20:36:09;100866.81;;;7.60;62.28
40940;BME280;26666;50.156;7.700;2023-04-19T20:41:12;100870.19;;;7.35;62.85
40940;BME280;26666;50.156;7.700;2023-04-19T20:46:14;100865.88;;;7.34;64.06
40940;BME280;26666;50.156;7.700;2023-04-19T20:51:16;100871.97;;;7.20;65.74
40940;BME280;26666;50.156;7.700;2023-04-19T20:56:19;100877.63;;;7.14;66.46
40940;BME280;26666;50.156;7.700;2023-04-19T21:01:21;100871.72;;;7.10;66.84
40940;BME280;26666;50.156;7.700;2023-04-19T21:06:25;100873.81;;;6.90;67.71
40940;BME280;26666;50.156;7.700;2023-04-19T21:11:28;100864.16;;;6.77;68.30
40940;BME280;26666;50.156;7.700;2023-04-19T21:16:30;100863.50;;;6.73;68.29
40940;BME280;26666;50.156;7.700;2023-04-19T21:21:32;100858.78;;;6.49;70.00
40940;BME280;26666;50.156;7.700;2023-04-19T21:26:35;100858.25;;;6.44;69.36
40940;BME280;26666;50.156;7.700;2023-04-19T21:31:37;100851.31;;;6.43;71.68
40940;BME280;26666;50.156;7.700;2023-04-19T21:36:39;100850.09;;;6.35;70.21
40940;BME280;26666;50.156;7.700;2023-04-19T21:41:42;100847.63;;;6.31;71.21
40940;BME280;26666;50.156;7.700;2023-04-19T21:46:44;100853.25;;;6.25;69.95
40940;BME280;26666;50.156;7.700;2023-04-19T21:51:45;100843.38;;;6.15;70.80
40940;BME280;26666;50.156;7.700;2023-04-19T21:56:48;100844.78;;;6.06;71.75
40940;BME280;26666;50.156;7.700;2023-04-19T22:01:50;100841.97;;;6.09;71.71
40940;BME280;26666;50.156;7.700;2023-04-19T22:06:54;100845.81;;;6.03;72.85
40940;BME280;26666;50.156;7.700;2023-04-19T22:11:57;100838.69;;;5.89;72.04
40940;BME280;26666;50.156;7.700;2023-04-19T22:16:59;100843.06;;;5.75;72.30
40940;BME280;26666;50.156;7.700;2023-04-19T22:22:01;100825.81;;;5.70;73.95
40940;BME280;26666;50.156;7.700;2023-04-19T22:27:04;100823.66;;;5.63;74.04
40940;BME280;26666;50.156;7.700;2023-04-19T22:32:06;100819.06;;;5.50;74.24
40940;BME280;26666;50.156;7.700;2023-04-19T22:37:08;100814.34;;;5.57;73.73
40940;BME280;26666;50.156;7.700;2023-04-19T22:42:11;100819.59;;;5.57;73.48
40940;BME280;26666;50.156;7.700;2023-04-19T22:47:13;100806.75;;;5.37;72.93
40940;BME280;26666;50.156;7.700;2023-04-19T22:52:14;100801.03;;;5.30;74.87
40940;BME280;26666;50.156;7.700;2023-04-19T22:57:17;100792.75;;;5.38;74.68
40940;BME280;26666;50.156;7.700;2023-04-19T23:02:19;100795.88;;;5.28;74.80
40940;BME280;26666;50.156;7.700;2023-04-19T23:07:21;100788.63;;;5.18;74.66
40940;BME280;26666;50.156;7.700;2023-04-19T23:12:24;100781.00;;;5.13;73.33
40940;BME280;26666;50.156;7.700;2023-04-19T23:17:25;100774.59;;;5.03;74.28
40940;BME280;26666;50.156;7.700;2023-04-19T23:22:27;100767.59;;;4.87;74.26
40940;BME280;26666;50.156;7.700;2023-04-19T23:27:30;100757.19;;;4.86;75.07
40940;BME280;26666;50.156;7.700;2023-04-19T23:32:32;100753.00;;;4.83;75.96
40940;BME280;26666;50.156;7.700;2023-04-19T23:37:34;100738.72;;;4.73;77.11
40940;BME280;26666;50.156;7.700;2023-04-19T23:42:37;100747.22;;;4.61;78.53
40940;BME280;26666;50.156;7.700;2023-04-19T23:47:38;100740.81;;;4.66;78.13
40940;BME280;26666;50.156;7.700;2023-04-19T23:52:40;100737.44;;;4.80;77.69
40940;BME280;26666;50.156;7.700;2023-04-19T23:57:43;100721.56;;;4.67;78.17
